Opal Express — V7KB8 — position and weather

sailwx.info

Track history (hours):
 
Tides and Currents Weather Stations Pressure Air Temp Water Temp Dewpoint Dewpoint Depression Visibility Wind Speed Wind Dir Waves Ship Positions

Opal Express

Last reported at 2018-Jan-12 15:01 UTC. Time now 2018-Jan-23 06:28 UTC.
Position N 33°55' E 134°58'.
Warning: this ship's position is 10 days out of date.

Length 179 m; draft 7.8 m.

Type: Tanker. MMSI: 538002500.

Date/timePositionNaut miles runAvg speedWind from/ knotsBaromVisibWave heightAir tempDewpointWater temp
2018-Jan-12 15:01N 33°55' E 134°58'3 6.9
2018-Jan-12 14:30N 33°52' E 134°58'612.6
2018-Jan-12 14:00N 33°46' E 134°57'712.5
2018-Jan-12 13:25N 33°39' E 134°53'184 6.7
2018-Jan-11 09:48N 34°18' E 138°30'4 9.8
2018-Jan-11 09:22N 34°19' E 138°35'4 9.7
2018-Jan-11 08:56N 34°22' E 138°39'5 9.8
2018-Jan-11 08:28N 34°24' E 138°44'5 9.9
2018-Jan-11 08:00N 34°26' E 138°49'5 9.5
2018-Jan-11 07:26N 34°28' E 138°55'4 8.9
2018-Jan-11 07:00N 34°30' E 138°60'4 7.8
2018-Jan-11 06:29N 34°32' E 139°04'4 9.1
2018-Jan-11 06:01N 34°36' E 139°06'5 9.7
2018-Jan-11 05:30N 34°40' E 139°08'610.3
2018-Jan-11 04:58N 34°45' E 139°12'5 9.9
2018-Jan-11 04:28N 34°48' E 139°16'5 9.9
2018-Jan-11 04:00N 34°51' E 139°20'5 9.4
2018-Jan-11 03:29N 34°54' E 139°25'5 9.5
2018-Jan-11 02:59N 34°57' E 139°30'5 9.8
2018-Jan-11 02:30N 34°60' E 139°34'611.2
2018-Jan-11 02:00N 35°03' E 139°40'611.0
2018-Jan-11 01:30N 35°07' E 139°44'5 9.6
2018-Jan-11 01:00N 35°12' E 139°45'4 8.5
2018-Jan-11 00:30N 35°16' E 139°46'611.8
2018-Jan-11 00:00N 35°21' E 139°42'4 7.9
2018-Jan-10 23:28N 35°25' E 139°39'0 0.2
2018-Jan-10 22:58N 35°25' E 139°39'0 0.0
2018-Jan-10 22:25N 35°25' E 139°39'0 0.0
2018-Jan-10 21:55N 35°25' E 139°39'0 0.0
2018-Jan-10 21:28N 35°25' E 139°39'0 0.0
2018-Jan-10 20:58N 35°25' E 139°39'0 0.0
2018-Jan-10 20:28N 35°25' E 139°39'0 0.0
2018-Jan-10 19:58N 35°25' E 139°39'0 0.0
2018-Jan-10 19:28N 35°25' E 139°39'0 0.0
2018-Jan-10 18:58N 35°25' E 139°39'0 0.0
2018-Jan-10 18:28N 35°25' E 139°39'0 0.0
2018-Jan-10 17:58N 35°25' E 139°39'0 0.0
2018-Jan-10 17:28N 35°25' E 139°39'0 0.0
2018-Jan-10 16:58N 35°25' E 139°39'0 0.0
2018-Jan-10 16:28N 35°25' E 139°39'0 0.0
2018-Jan-10 15:58N 35°25' E 139°39'0 0.0
2018-Jan-10 15:28N 35°25' E 139°39'0 0.0
2018-Jan-10 14:58N 35°25' E 139°39'0 0.0
2018-Jan-10 14:28N 35°25' E 139°39'0 0.0
2018-Jan-10 13:58N 35°25' E 139°39'0 0.0
2018-Jan-10 13:28N 35°25' E 139°39'0 0.0
2018-Jan-10 12:58N 35°25' E 139°39'0 0.0
2018-Jan-10 12:28N 35°25' E 139°39'0 0.0
2018-Jan-10 11:58N 35°25' E 139°39'0 0.0
2018-Jan-10 11:28N 35°25' E 139°39'0 0.0
2018-Jan-10 10:58N 35°25' E 139°39'0 0.0
2018-Jan-10 10:28N 35°25' E 139°39'0 0.0
2018-Jan-10 09:58N 35°25' E 139°39'0 0.0
2018-Jan-10 09:28N 35°25' E 139°39'0 0.0
2018-Jan-10 08:58N 35°25' E 139°39'0 0.0
2018-Jan-10 08:28N 35°25' E 139°39'0 0.0
2018-Jan-10 07:58N 35°25' E 139°39'0 0.0
2018-Jan-10 07:28N 35°25' E 139°39'0 0.0
2018-Jan-10 06:58N 35°25' E 139°39'0 0.0
2018-Jan-10 06:28N 35°25' E 139°39'0 0.0
2018-Jan-10 05:58N 35°25' E 139°39'0 0.0
2018-Jan-10 05:28N 35°25' E 139°39'0 0.0
2018-Jan-10 04:58N 35°25' E 139°39'0 0.0
2018-Jan-10 04:28N 35°25' E 139°39'0 0.0
2018-Jan-10 03:58N 35°25' E 139°39'0 0.0
2018-Jan-10 03:25N 35°25' E 139°39'0 0.0
2018-Jan-10 02:58N 35°25' E 139°39'0 0.0
2018-Jan-10 02:28N 35°25' E 139°39'0 0.0
2018-Jan-10 01:58N 35°25' E 139°39'0 0.0
2018-Jan-10 01:28N 35°25' E 139°39'0 0.0
2018-Jan-10 00:58N 35°25' E 139°39'0 0.0
2018-Jan-10 00:30N 35°25' E 139°39'1 1.5
2018-Jan-10 00:00N 35°24' E 139°39'3 5.2
2018-Jan-09 23:30N 35°25' E 139°42'0 0.5
2018-Jan-09 23:00N 35°25' E 139°43'0 0.0
2018-Jan-09 22:30N 35°25' E 139°43'0 0.0
2018-Jan-09 22:00N 35°25' E 139°43'0 0.0
2018-Jan-09 21:30N 35°25' E 139°43'0 0.0
2018-Jan-09 21:00N 35°25' E 139°43'0 0.0
2018-Jan-09 20:30N 35°25' E 139°43'0 0.1
2018-Jan-09 20:00N 35°25' E 139°43'0 0.1
2018-Jan-09 19:30N 35°25' E 139°43'0 0.0
2018-Jan-09 19:00N 35°25' E 139°43'0 0.0
2018-Jan-09 18:30N 35°25' E 139°43'0 0.0
2018-Jan-09 18:00N 35°25' E 139°43'0 0.0
2018-Jan-09 17:30N 35°25' E 139°43'0 0.2
2018-Jan-09 17:00N 35°25' E 139°43'0 0.0
2018-Jan-09 16:30N 35°25' E 139°43'0 0.1
2018-Jan-09 16:00N 35°25' E 139°42'0 0.1
2018-Jan-09 15:30N 35°25' E 139°43'0 0.1
2018-Jan-09 15:00N 35°25' E 139°42'0 0.0
2018-Jan-09 14:30N 35°25' E 139°42'0 0.1
2018-Jan-09 14:00N 35°25' E 139°43'0 0.1
2018-Jan-09 13:30N 35°25' E 139°43'0 0.0
2018-Jan-09 13:00N 35°25' E 139°43'0 0.0
2018-Jan-09 12:30N 35°25' E 139°43'0 0.0
2018-Jan-09 12:00N 35°25' E 139°43'0 0.0
2018-Jan-09 11:27N 35°25' E 139°43'0 0.1
2018-Jan-09 11:00N 35°25' E 139°43'0 0.0
2018-Jan-09 10:30N 35°25' E 139°43'0 0.0
2018-Jan-09 10:00N 35°25' E 139°43'0 0.0
2018-Jan-09 09:30N 35°25' E 139°43'0 0.1
2018-Jan-09 09:00N 35°25' E 139°43'0 0.0
2018-Jan-09 08:30N 35°25' E 139°43'0 0.0
2018-Jan-09 07:57N 35°25' E 139°43'0 0.0
2018-Jan-09 07:30N 35°25' E 139°43'0 0.0
2018-Jan-09 07:00N 35°25' E 139°43'0 0.0
2018-Jan-09 06:30N 35°25' E 139°43'0 0.1
2018-Jan-09 06:00N 35°25' E 139°43'0 0.0
2018-Jan-09 05:30N 35°25' E 139°43'0 0.0
2018-Jan-09 04:57N 35°25' E 139°43'0 0.0
2018-Jan-09 04:30N 35°25' E 139°43'0 0.0
2018-Jan-09 04:00N 35°25' E 139°43'0 0.0
2018-Jan-09 03:30N 35°25' E 139°43'0 0.0
2018-Jan-09 03:00N 35°25' E 139°43'0 0.0
2018-Jan-09 02:30N 35°25' E 139°43'0 0.2
2018-Jan-09 02:00N 35°25' E 139°42'3 5.7
2018-Jan-09 01:30N 35°27' E 139°45'5 9.9
2018-Jan-09 01:00N 35°29' E 139°51'611.1
2018-Jan-09 00:31N 35°31' E 139°57'3 1.0
2018-Jan-08 21:12N 35°30' E 140°01'0 0.0
2018-Jan-08 20:48N 35°30' E 140°01'0 0.0
2018-Jan-08 20:18N 35°30' E 140°01'0 0.0
2018-Jan-08 19:54N 35°30' E 140°01'0 0.0
2018-Jan-08 19:30N 35°30' E 140°01'0 0.0
2018-Jan-08 18:54N 35°30' E 140°01'0 0.0
2018-Jan-08 17:18N 35°30' E 140°01'0 0.0
2018-Jan-08 17:00N 35°30' E 140°01'0 0.0
2018-Jan-08 16:30N 35°30' E 140°01'0 0.0
2018-Jan-08 16:00N 35°30' E 140°01'0 0.0
2018-Jan-08 15:30N 35°30' E 140°01'0 0.0
2018-Jan-08 11:18N 35°30' E 140°01'0 0.0
2018-Jan-08 02:21N 35°30' E 140°01'0 0.0
2018-Jan-08 02:00N 35°30' E 140°01'0 0.6
2018-Jan-08 01:30N 35°30' E 140°01'3 5.6
2018-Jan-08 01:00N 35°32' E 139°59'2 2.8
2018-Jan-08 00:26N 35°33' E 139°57'0 0.1
2018-Jan-07 23:56N 35°33' E 139°57'0 0.0
2018-Jan-07 23:02N 35°33' E 139°57'0 0.0
2018-Jan-07 22:50N 35°33' E 139°57'0 0.0
2018-Jan-07 22:29N 35°33' E 139°57'0 0.1
2018-Jan-07 21:56N 35°33' E 139°57'0 0.0
2018-Jan-07 21:14N 35°33' E 139°57'0 0.0
2018-Jan-07 20:59N 35°33' E 139°57'0 0.0
2018-Jan-07 20:29N 35°33' E 139°57'0 0.0
2018-Jan-07 19:59N 35°33' E 139°57'0 0.1
2018-Jan-07 19:26N 35°33' E 139°57'0 0.0
2018-Jan-07 18:59N 35°33' E 139°57'0 0.0
2018-Jan-07 18:29N 35°33' E 139°57'0 0.1
2018-Jan-07 17:59N 35°33' E 139°57'0 0.0
2018-Jan-07 17:26N 35°33' E 139°57'0 0.0
2018-Jan-07 16:59N 35°33' E 139°57'0 0.0
2018-Jan-07 16:29N 35°33' E 139°57'0 0.0
2018-Jan-07 15:59N 35°33' E 139°57'0 0.1
2018-Jan-07 15:26N 35°33' E 139°57'0 0.2
2018-Jan-07 14:59N 35°33' E 139°57'0 0.1
2018-Jan-07 14:26N 35°33' E 139°57'0 0.0
2018-Jan-07 13:56N 35°33' E 139°57'0 0.1
2018-Jan-07 13:26N 35°33' E 139°57'0 0.1
2018-Jan-07 12:56N 35°33' E 139°57'0 0.0
2018-Jan-07 12:29N 35°33' E 139°57'0 0.1
2018-Jan-07 11:56N 35°33' E 139°57'0 0.0
2018-Jan-07 11:26N 35°33' E 139°57'0 0.1
2018-Jan-07 10:56N 35°33' E 139°57'0 0.0
2018-Jan-07 10:26N 35°33' E 139°57'0 0.0
2018-Jan-07 09:56N 35°33' E 139°57'0 0.1
2018-Jan-07 09:20N 35°33' E 139°57'0 0.0
2018-Jan-07 08:44N 35°33' E 139°57'0 0.0
2018-Jan-07 08:26N 35°33' E 139°57'0 0.0
2018-Jan-07 07:56N 35°33' E 139°57'0 0.0
2018-Jan-07 07:26N 35°33' E 139°57'0 0.1
2018-Jan-07 06:59N 35°33' E 139°57'0 0.1
2018-Jan-07 06:29N 35°33' E 139°57'0 0.1
2018-Jan-07 06:00N 35°33' E 139°57'2 3.1
2018-Jan-07 05:30N 35°32' E 139°56'5 9.3
2018-Jan-07 05:00N 35°29' E 139°52'612.2
2018-Jan-07 04:30N 35°24' E 139°46'611.7
2018-Jan-07 04:00N 35°19' E 139°44'611.5
2018-Jan-07 03:30N 35°14' E 139°47'5 9.2
2018-Jan-07 03:00N 35°09' E 139°46'3 5.8
2018-Jan-07 02:30N 35°06' E 139°45'3 6.6
2018-Jan-07 02:00N 35°03' E 139°44'611.4
2018-Jan-07 01:30N 34°58' E 139°41'1110.1
2018-Jan-07 00:26N 34°48' E 139°46'510.7
2018-Jan-07 00:00N 34°44' E 139°50'1811.9
2018-Jan-06 22:30N 34°29' E 140°01'713.6
2018-Jan-06 21:58N 34°23' E 140°05'  
Track history (hours):
 
Tides and Currents Weather Stations Pressure Air Temp Water Temp Dewpoint Dewpoint Depression Visibility Wind Speed Wind Dir Waves Ship Positions

Opal Express

Last reported at 2018-Jan-12 15:01 UTC. Time now 2018-Jan-23 06:28 UTC.
Position N 33°55' E 134°58'.
Warning: this ship's position is 10 days out of date.

Length 179 m; draft 7.8 m.

Type: Tanker. MMSI: 538002500.

Date/timePositionNaut miles runAvg speedWind from/ knotsBaromVisibWave heightAir tempDewpointWater temp
2018-Jan-12 15:01N 33°55' E 134°58'3 6.9
2018-Jan-12 14:30N 33°52' E 134°58'612.6
2018-Jan-12 14:00N 33°46' E 134°57'712.5
2018-Jan-12 13:25N 33°39' E 134°53'184 6.7
2018-Jan-11 09:48N 34°18' E 138°30'4 9.8
2018-Jan-11 09:22N 34°19' E 138°35'4 9.7
2018-Jan-11 08:56N 34°22' E 138°39'5 9.8
2018-Jan-11 08:28N 34°24' E 138°44'5 9.9
2018-Jan-11 08:00N 34°26' E 138°49'5 9.5
2018-Jan-11 07:26N 34°28' E 138°55'4 8.9
2018-Jan-11 07:00N 34°30' E 138°60'4 7.8
2018-Jan-11 06:29N 34°32' E 139°04'4 9.1
2018-Jan-11 06:01N 34°36' E 139°06'5 9.7
2018-Jan-11 05:30N 34°40' E 139°08'610.3
2018-Jan-11 04:58N 34°45' E 139°12'5 9.9
2018-Jan-11 04:28N 34°48' E 139°16'5 9.9
2018-Jan-11 04:00N 34°51' E 139°20'5 9.4
2018-Jan-11 03:29N 34°54' E 139°25'5 9.5
2018-Jan-11 02:59N 34°57' E 139°30'5 9.8
2018-Jan-11 02:30N 34°60' E 139°34'611.2
2018-Jan-11 02:00N 35°03' E 139°40'611.0
2018-Jan-11 01:30N 35°07' E 139°44'5 9.6
2018-Jan-11 01:00N 35°12' E 139°45'4 8.5
2018-Jan-11 00:30N 35°16' E 139°46'611.8
2018-Jan-11 00:00N 35°21' E 139°42'4 7.9
2018-Jan-10 23:28N 35°25' E 139°39'0 0.2
2018-Jan-10 22:58N 35°25' E 139°39'0 0.0
2018-Jan-10 22:25N 35°25' E 139°39'0 0.0
2018-Jan-10 21:55N 35°25' E 139°39'0 0.0
2018-Jan-10 21:28N 35°25' E 139°39'0 0.0
2018-Jan-10 20:58N 35°25' E 139°39'0 0.0
2018-Jan-10 20:28N 35°25' E 139°39'0 0.0
2018-Jan-10 19:58N 35°25' E 139°39'0 0.0
2018-Jan-10 19:28N 35°25' E 139°39'0 0.0
2018-Jan-10 18:58N 35°25' E 139°39'0 0.0
2018-Jan-10 18:28N 35°25' E 139°39'0 0.0
2018-Jan-10 17:58N 35°25' E 139°39'0 0.0
2018-Jan-10 17:28N 35°25' E 139°39'0 0.0
2018-Jan-10 16:58N 35°25' E 139°39'0 0.0
2018-Jan-10 16:28N 35°25' E 139°39'0 0.0
2018-Jan-10 15:58N 35°25' E 139°39'0 0.0
2018-Jan-10 15:28N 35°25' E 139°39'0 0.0
2018-Jan-10 14:58N 35°25' E 139°39'0 0.0
2018-Jan-10 14:28N 35°25' E 139°39'0 0.0
2018-Jan-10 13:58N 35°25' E 139°39'0 0.0
2018-Jan-10 13:28N 35°25' E 139°39'0 0.0
2018-Jan-10 12:58N 35°25' E 139°39'0 0.0
2018-Jan-10 12:28N 35°25' E 139°39'0 0.0
2018-Jan-10 11:58N 35°25' E 139°39'0 0.0
2018-Jan-10 11:28N 35°25' E 139°39'0 0.0
2018-Jan-10 10:58N 35°25' E 139°39'0 0.0
2018-Jan-10 10:28N 35°25' E 139°39'0 0.0
2018-Jan-10 09:58N 35°25' E 139°39'0 0.0
2018-Jan-10 09:28N 35°25' E 139°39'0 0.0
2018-Jan-10 08:58N 35°25' E 139°39'0 0.0
2018-Jan-10 08:28N 35°25' E 139°39'0 0.0
2018-Jan-10 07:58N 35°25' E 139°39'0 0.0
2018-Jan-10 07:28N 35°25' E 139°39'0 0.0
2018-Jan-10 06:58N 35°25' E 139°39'0 0.0
2018-Jan-10 06:28N 35°25' E 139°39'0 0.0
2018-Jan-10 05:58N 35°25' E 139°39'0 0.0
2018-Jan-10 05:28N 35°25' E 139°39'0 0.0
2018-Jan-10 04:58N 35°25' E 139°39'0 0.0
2018-Jan-10 04:28N 35°25' E 139°39'0 0.0
2018-Jan-10 03:58N 35°25' E 139°39'0 0.0
2018-Jan-10 03:25N 35°25' E 139°39'0 0.0
2018-Jan-10 02:58N 35°25' E 139°39'0 0.0
2018-Jan-10 02:28N 35°25' E 139°39'0 0.0
2018-Jan-10 01:58N 35°25' E 139°39'0 0.0
2018-Jan-10 01:28N 35°25' E 139°39'0 0.0
2018-Jan-10 00:58N 35°25' E 139°39'0 0.0
2018-Jan-10 00:30N 35°25' E 139°39'1 1.5
2018-Jan-10 00:00N 35°24' E 139°39'3 5.2
2018-Jan-09 23:30N 35°25' E 139°42'0 0.5
2018-Jan-09 23:00N 35°25' E 139°43'0 0.0
2018-Jan-09 22:30N 35°25' E 139°43'0 0.0
2018-Jan-09 22:00N 35°25' E 139°43'0 0.0
2018-Jan-09 21:30N 35°25' E 139°43'0 0.0
2018-Jan-09 21:00N 35°25' E 139°43'0 0.0
2018-Jan-09 20:30N 35°25' E 139°43'0 0.1
2018-Jan-09 20:00N 35°25' E 139°43'0 0.1
2018-Jan-09 19:30N 35°25' E 139°43'0 0.0
2018-Jan-09 19:00N 35°25' E 139°43'0 0.0
2018-Jan-09 18:30N 35°25' E 139°43'0 0.0
2018-Jan-09 18:00N 35°25' E 139°43'0 0.0
2018-Jan-09 17:30N 35°25' E 139°43'0 0.2
2018-Jan-09 17:00N 35°25' E 139°43'0 0.0
2018-Jan-09 16:30N 35°25' E 139°43'0 0.1
2018-Jan-09 16:00N 35°25' E 139°42'0 0.1
2018-Jan-09 15:30N 35°25' E 139°43'0 0.1
2018-Jan-09 15:00N 35°25' E 139°42'0 0.0
2018-Jan-09 14:30N 35°25' E 139°42'0 0.1
2018-Jan-09 14:00N 35°25' E 139°43'0 0.1
2018-Jan-09 13:30N 35°25' E 139°43'0 0.0
2018-Jan-09 13:00N 35°25' E 139°43'0 0.0
2018-Jan-09 12:30N 35°25' E 139°43'0 0.0
2018-Jan-09 12:00N 35°25' E 139°43'0 0.0
2018-Jan-09 11:27N 35°25' E 139°43'0 0.1
2018-Jan-09 11:00N 35°25' E 139°43'0 0.0
2018-Jan-09 10:30N 35°25' E 139°43'0 0.0
2018-Jan-09 10:00N 35°25' E 139°43'0 0.0
2018-Jan-09 09:30N 35°25' E 139°43'0 0.1
2018-Jan-09 09:00N 35°25' E 139°43'0 0.0
2018-Jan-09 08:30N 35°25' E 139°43'0 0.0
2018-Jan-09 07:57N 35°25' E 139°43'0 0.0
2018-Jan-09 07:30N 35°25' E 139°43'0 0.0
2018-Jan-09 07:00N 35°25' E 139°43'0 0.0
2018-Jan-09 06:30N 35°25' E 139°43'0 0.1
2018-Jan-09 06:00N 35°25' E 139°43'0 0.0
2018-Jan-09 05:30N 35°25' E 139°43'0 0.0
2018-Jan-09 04:57N 35°25' E 139°43'0 0.0
2018-Jan-09 04:30N 35°25' E 139°43'0 0.0
2018-Jan-09 04:00N 35°25' E 139°43'0 0.0
2018-Jan-09 03:30N 35°25' E 139°43'0 0.0
2018-Jan-09 03:00N 35°25' E 139°43'0 0.0
2018-Jan-09 02:30N 35°25' E 139°43'0 0.2
2018-Jan-09 02:00N 35°25' E 139°42'3 5.7
2018-Jan-09 01:30N 35°27' E 139°45'5 9.9
2018-Jan-09 01:00N 35°29' E 139°51'611.1
2018-Jan-09 00:31N 35°31' E 139°57'3 1.0
2018-Jan-08 21:12N 35°30' E 140°01'0 0.0
2018-Jan-08 20:48N 35°30' E 140°01'0 0.0
2018-Jan-08 20:18N 35°30' E 140°01'0 0.0
2018-Jan-08 19:54N 35°30' E 140°01'0 0.0
2018-Jan-08 19:30N 35°30' E 140°01'0 0.0
2018-Jan-08 18:54N 35°30' E 140°01'0 0.0
2018-Jan-08 17:18N 35°30' E 140°01'0 0.0
2018-Jan-08 17:00N 35°30' E 140°01'0 0.0
2018-Jan-08 16:30N 35°30' E 140°01'0 0.0
2018-Jan-08 16:00N 35°30' E 140°01'0 0.0
2018-Jan-08 15:30N 35°30' E 140°01'0 0.0
2018-Jan-08 11:18N 35°30' E 140°01'0 0.0
2018-Jan-08 02:21N 35°30' E 140°01'0 0.0
2018-Jan-08 02:00N 35°30' E 140°01'0 0.6
2018-Jan-08 01:30N 35°30' E 140°01'3 5.6
2018-Jan-08 01:00N 35°32' E 139°59'2 2.8
2018-Jan-08 00:26N 35°33' E 139°57'0 0.1
2018-Jan-07 23:56N 35°33' E 139°57'0 0.0
2018-Jan-07 23:02N 35°33' E 139°57'0 0.0
2018-Jan-07 22:50N 35°33' E 139°57'0 0.0
2018-Jan-07 22:29N 35°33' E 139°57'0 0.1
2018-Jan-07 21:56N 35°33' E 139°57'0 0.0
2018-Jan-07 21:14N 35°33' E 139°57'0 0.0
2018-Jan-07 20:59N 35°33' E 139°57'0 0.0
2018-Jan-07 20:29N 35°33' E 139°57'0 0.0
2018-Jan-07 19:59N 35°33' E 139°57'0 0.1
2018-Jan-07 19:26N 35°33' E 139°57'0 0.0
2018-Jan-07 18:59N 35°33' E 139°57'0 0.0
2018-Jan-07 18:29N 35°33' E 139°57'0 0.1
2018-Jan-07 17:59N 35°33' E 139°57'0 0.0
2018-Jan-07 17:26N 35°33' E 139°57'0 0.0
2018-Jan-07 16:59N 35°33' E 139°57'0 0.0
2018-Jan-07 16:29N 35°33' E 139°57'0 0.0
2018-Jan-07 15:59N 35°33' E 139°57'0 0.1
2018-Jan-07 15:26N 35°33' E 139°57'0 0.2
2018-Jan-07 14:59N 35°33' E 139°57'0 0.1
2018-Jan-07 14:26N 35°33' E 139°57'0 0.0
2018-Jan-07 13:56N 35°33' E 139°57'0 0.1
2018-Jan-07 13:26N 35°33' E 139°57'0 0.1
2018-Jan-07 12:56N 35°33' E 139°57'0 0.0
2018-Jan-07 12:29N 35°33' E 139°57'0 0.1
2018-Jan-07 11:56N 35°33' E 139°57'0 0.0
2018-Jan-07 11:26N 35°33' E 139°57'0 0.1
2018-Jan-07 10:56N 35°33' E 139°57'0 0.0
2018-Jan-07 10:26N 35°33' E 139°57'0 0.0
2018-Jan-07 09:56N 35°33' E 139°57'0 0.1
2018-Jan-07 09:20N 35°33' E 139°57'0 0.0
2018-Jan-07 08:44N 35°33' E 139°57'0 0.0
2018-Jan-07 08:26N 35°33' E 139°57'0 0.0
2018-Jan-07 07:56N 35°33' E 139°57'0 0.0
2018-Jan-07 07:26N 35°33' E 139°57'0 0.1
2018-Jan-07 06:59N 35°33' E 139°57'0 0.1
2018-Jan-07 06:29N 35°33' E 139°57'0 0.1
2018-Jan-07 06:00N 35°33' E 139°57'2 3.1
2018-Jan-07 05:30N 35°32' E 139°56'5 9.3
2018-Jan-07 05:00N 35°29' E 139°52'612.2
2018-Jan-07 04:30N 35°24' E 139°46'611.7
2018-Jan-07 04:00N 35°19' E 139°44'611.5
2018-Jan-07 03:30N 35°14' E 139°47'5 9.2
2018-Jan-07 03:00N 35°09' E 139°46'3 5.8
2018-Jan-07 02:30N 35°06' E 139°45'3 6.6
2018-Jan-07 02:00N 35°03' E 139°44'611.4
2018-Jan-07 01:30N 34°58' E 139°41'1110.1
2018-Jan-07 00:26N 34°48' E 139°46'510.7
2018-Jan-07 00:00N 34°44' E 139°50'1811.9
2018-Jan-06 22:30N 34°29' E 140°01'713.6
2018-Jan-06 21:58N 34°23' E 140°05'  

Dump ship's entire track history